Time;durP1;ratioP1;P1;durP2;ratioP2;P2;SDS_P1;SDS_P2;PMS_P1;PMS_P2;Temp;Humidity;BMP_temperature;BMP_pressure;BME280_temperature;BME280_humidity;BME280_pressure;Samples;Min_cycle;Max_cycle;Signal;HPM_P1;HPM_P2
2022/02/04 00:09:24;;;;;;;48.78;26.70;;;6.10;99.90;;;;;;6065941;23;20030;-77
2022/02/04 00:22:56;;;;;;;48.33;27.15;;;6.10;99.90;;;;;;6086349;23;20018;-82
2022/02/04 00:28:02;;;;;;;;;;;6.00;99.90;;;;;;6184001;23;20448;-78
2022/02/04 00:30:34;;;;;;;51.47;25.55;;;5.90;99.90;;;;;;6185201;23;20097;-79
2022/02/04 00:33:01;;;;;;;48.92;25.40;;;5.90;99.90;;;;;;6211559;23;20019;-78
2022/02/04 00:40:28;;;;;;;50.05;25.55;;;5.90;99.90;;;;;;6184394;23;20078;-78
2022/02/04 00:42:57;;;;;;;51.05;26.55;;;5.90;99.90;;;;;;6182470;23;20040;-77
2022/02/04 00:45:33;;;;;;;50.13;26.52;;;6.00;99.90;;;;;;6185220;23;20456;-81
2022/02/04 00:48:19;;;;;;;43.10;24.80;;;5.80;99.90;;;;;;6160537;23;20027;-78
2022/02/04 00:53:34;;;;;;;48.20;27.05;;;5.80;99.90;;;;;;6183995;23;20016;-80
2022/02/04 01:26:03;;;;;;;43.72;25.13;;;6.00;99.90;;;;;;6182343;23;20027;-82
2022/02/04 01:28:31;;;;;;;45.90;25.83;;;6.00;99.90;;;;;;6182259;23;20012;-78
2022/02/04 01:30:57;;;;;;;48.10;26.15;;;6.00;99.90;;;;;;6182880;23;20028;-78
2022/02/04 01:33:23;;;;;;;46.00;25.35;;;6.10;99.90;;;;;;6211200;23;20084;-80
2022/02/04 01:35:49;;;;;;;49.92;25.80;;;6.10;99.90;;;;;;6157245;23;20020;-79
2022/02/04 01:38:14;;;;;;;47.40;24.17;;;6.10;99.90;;;;;;6159563;23;20047;-79
2022/02/04 01:40:40;;;;;;;47.20;25.52;;;6.20;99.90;;;;;;6185784;23;20102;-76
2022/02/04 01:43:06;;;;;;;45.40;25.23;;;6.20;99.90;;;;;;6185807;23;20009;-79
2022/02/04 01:45:32;;;;;;;42.15;25.58;;;6.10;99.90;;;;;;6183103;23;20016;-77
2022/02/04 01:47:57;;;;;;;45.28;24.75;;;6.10;99.90;;;;;;6185250;23;20099;-81
2022/02/04 01:50:29;;;;;;;42.22;24.35;;;6.20;99.90;;;;;;6183232;23;20013;-82
2022/02/04 01:52:59;;;;;;;46.30;24.83;;;6.20;99.90;;;;;;6159770;23;20348;-77
2022/02/04 01:55:26;;;;;;;43.05;24.02;;;6.20;99.90;;;;;;6184628;23;20031;-78
2022/02/04 01:57:52;;;;;;;39.85;23.33;;;6.20;99.90;;;;;;6181282;23;20048;-79
2022/02/04 02:00:18;;;;;;;43.33;23.98;;;6.30;99.90;;;;;;6184664;23;20440;-79
2022/02/04 02:02:44;;;;;;;40.65;24.02;;;6.40;99.90;;;;;;6156275;23;20016;-80
2022/02/04 02:05:10;;;;;;;46.30;24.88;;;6.30;99.90;;;;;;6158207;23;20024;-83
2022/02/04 02:07:46;;;;;;;39.63;22.77;;;6.30;99.90;;;;;;6157311;23;20108;-80
2022/02/04 02:10:15;;;;;;;43.20;23.50;;;6.50;99.90;;;;;;6184019;23;20020;-81
2022/02/04 02:15:29;;;;;;;40.25;22.83;;;6.30;99.90;;;;;;6185516;23;20345;-82
2022/02/04 03:00:33;;;;;;;37.67;21.08;;;6.60;99.90;;;;;;6183378;23;20080;-82
2022/02/04 03:03:05;;;;;;;39.67;21.20;;;6.60;99.90;;;;;;6159321;23;20016;-78
2022/02/04 03:05:31;;;;;;;39.85;22.10;;;6.70;99.90;;;;;;6158077;23;20507;-82
2022/02/04 03:07:56;;;;;;;40.55;22.52;;;6.70;99.90;;;;;;6181806;23;20021;-80
2022/02/04 03:10:22;;;;;;;35.88;20.00;;;6.70;99.90;;;;;;6183408;23;20078;-79
2022/02/04 03:12:48;;;;;;;40.63;21.92;;;6.70;99.90;;;;;;6157047;23;20059;-79
2022/02/04 03:15:14;;;;;;;39.33;21.58;;;6.80;99.90;;;;;;6186015;23;20012;-79
2022/02/04 03:17:41;;;;;;;43.40;22.23;;;6.60;99.90;;;;;;6186370;23;20012;-82
2022/02/04 03:20:11;;;;;;;37.55;19.77;;;6.70;99.90;;;;;;6182409;23;20310;-79
2022/02/04 03:22:37;;;;;;;42.97;22.25;;;6.60;99.90;;;;;;6184172;23;20299;-84
2022/02/04 03:25:07;;;;;;;39.83;21.50;;;6.70;99.90;;;;;;6160605;23;20013;-80
2022/02/04 03:27:47;;;;;;;38.50;22.13;;;6.70;99.90;;;;;;6212160;23;20012;-79
2022/02/04 03:30:18;;;;;;;41.38;22.08;;;6.70;99.90;;;;;;6184595;23;20016;-82
2022/02/04 03:32:51;;;;;;;38.80;21.52;;;6.70;99.90;;;;;;6160647;23;20337;-76
2022/02/04 03:35:21;;;;;;;38.88;22.05;;;6.70;99.90;;;;;;6185352;23;20036;-84
2022/02/04 03:37:48;;;;;;;39.17;21.98;;;6.70;99.90;;;;;;6159176;23;20021;-78
2022/02/04 03:40:14;;;;;;;41.65;23.00;;;6.80;99.90;;;;;;6185194;23;20514;-79
2022/02/04 03:42:40;;;;;;;44.72;20.63;;;6.90;99.90;;;;;;6160658;23;20459;-81
2022/02/04 03:45:06;;;;;;;40.13;21.92;;;6.80;99.90;;;;;;6186201;23;20016;-80
2022/02/04 03:47:31;;;;;;;44.10;22.15;;;6.70;99.90;;;;;;6185761;23;20424;-82
2022/02/04 03:49:57;;;;;;;42.10;22.80;;;6.80;99.90;;;;;;6185588;23;20441;-81
2022/02/04 03:52:23;;;;;;;40.35;22.55;;;6.80;99.90;;;;;;6210091;23;20020;-77
2022/02/04 03:54:49;;;;;;;42.83;23.70;;;6.80;99.90;;;;;;6185473;23;20082;-78
2022/02/04 03:57:14;;;;;;;46.72;24.13;;;6.80;99.90;;;;;;6186167;23;20087;-80
2022/02/04 03:59:40;;;;;;;46.97;23.40;;;6.80;99.90;;;;;;6210829;23;20019;-77
2022/02/04 04:02:06;;;;;;;44.38;23.35;;;6.80;99.90;;;;;;6161077;23;20063;-78
2022/02/04 04:04:33;;;;;;;48.90;24.67;;;6.70;99.90;;;;;;6185560;23;20013;-77
2022/02/04 04:07:00;;;;;;;43.85;23.20;;;6.90;99.90;;;;;;6185383;23;20092;-77
2022/02/04 04:09:27;;;;;;;48.58;24.00;;;6.90;99.90;;;;;;6185693;23;20079;-79
2022/02/04 04:11:55;;;;;;;46.67;23.73;;;6.80;99.90;;;;;;6186202;23;20048;-81
2022/02/04 04:14:20;;;;;;;48.10;23.58;;;6.80;99.90;;;;;;6161150;23;20036;-79
2022/02/04 04:16:47;;;;;;;47.15;23.92;;;6.90;99.90;;;;;;6160487;23;20008;-83
2022/02/04 04:19:14;;;;;;;45.05;23.80;;;6.90;99.90;;;;;;6161329;23;20016;-83
2022/02/04 04:21:40;;;;;;;43.45;21.98;;;7.00;99.90;;;;;;6159860;23;20059;-79
2022/02/04 04:24:07;;;;;;;43.25;23.13;;;7.00;99.90;;;;;;6185255;23;20008;-83
2022/02/04 04:26:33;;;;;;;42.33;23.08;;;6.90;99.90;;;;;;6160800;23;20017;-78
2022/02/04 04:28:58;;;;;;;42.28;22.83;;;6.90;99.90;;;;;;6161214;23;20116;-83
2022/02/04 04:31:24;;;;;;;42.22;23.08;;;7.00;99.90;;;;;;6210755;23;20151;-81
2022/02/04 04:33:50;;;;;;;41.75;22.38;;;7.00;99.90;;;;;;6186184;23;20381;-79
2022/02/04 04:36:17;;;;;;;40.88;22.17;;;7.10;99.90;;;;;;6212866;23;20009;-79
2022/02/04 04:38:57;;;;;;;49.72;23.52;;;7.00;99.90;;;;;;6187206;23;20111;-81
2022/02/04 05:29:51;;;;;;;28.08;17.15;;;7.40;99.90;;;;;;6097277;23;20518;-80
2022/02/04 05:32:17;;;;;;;33.85;16.58;;;7.50;99.90;;;;;;6121903;23;20025;-80
2022/02/04 05:34:45;;;;;;;27.25;14.43;;;7.40;99.90;;;;;;6122153;23;20075;-77
2022/02/04 05:37:13;;;;;;;30.08;16.50;;;7.30;99.90;;;;;;6096991;23;20069;-81
2022/02/04 05:39:49;;;;;;;31.23;16.30;;;7.20;99.90;;;;;;6121721;23;20196;-78
2022/02/04 05:42:20;;;;;;;33.40;16.50;;;7.20;99.90;;;;;;6132391;23;20019;-80
2022/02/04 05:44:53;;;;;;;36.42;15.30;;;7.30;99.90;;;;;;6187433;23;20019;-79
2022/02/04 05:47:20;;;;;;;30.83;15.65;;;7.30;99.90;;;;;;6187954;23;20334;-82
2022/02/04 05:50:09;;;;;;;31.73;16.05;;;7.20;99.90;;;;;;6163181;23;20091;-80
2022/02/04 05:52:53;;;;;;;26.88;15.27;;;7.20;99.90;;;;;;6186863;23;20023;-83
2022/02/04 06:00:44;;;;;;;34.30;15.95;;;7.40;99.90;;;;;;6187043;23;20023;-81
2022/02/04 06:24:29;;;;;;;28.60;13.97;;;7.30;99.90;;;;;;6097254;23;20033;-81
2022/02/04 06:26:55;;;;;;;28.38;13.40;;;7.40;99.90;;;;;;6121356;23;20296;-82
2022/02/04 06:29:22;;;;;;;24.08;12.70;;;7.30;99.90;;;;;;6097391;23;20042;-78
2022/02/04 06:31:48;;;;;;;29.13;13.60;;;7.40;99.90;;;;;;6097574;23;20022;-80
2022/02/04 06:34:14;;;;;;;35.35;13.95;;;7.40;99.90;;;;;;6121878;23;20056;-79
2022/02/04 06:36:40;;;;;;;25.58;12.60;;;7.30;99.90;;;;;;6121440;23;20029;-81
2022/02/04 06:39:20;;;;;;;21.95;11.48;;;7.40;99.90;;;;;;6120954;23;20100;-82
2022/02/04 06:41:49;;;;;;;29.75;13.82;;;7.40;99.90;;;;;;6121481;23;20018;-78
2022/02/04 06:44:14;;;;;;;28.08;13.38;;;7.70;99.90;;;;;;6096562;23;20010;-80
2022/02/04 06:46:40;;;;;;;26.55;12.65;;;7.50;99.90;;;;;;6109757;23;20313;-80
2022/02/04 06:49:06;;;;;;;26.45;11.15;;;7.40;99.90;;;;;;6159270;23;20098;-80
2022/02/04 06:51:31;;;;;;;23.77;12.38;;;7.40;99.90;;;;;;6184242;23;20020;-78
2022/02/04 06:53:57;;;;;;;28.08;10.95;;;7.50;99.90;;;;;;6159309;23;20075;-78
2022/02/04 06:56:23;;;;;;;29.45;11.50;;;7.50;99.90;;;;;;6185375;23;20009;-76
2022/02/04 06:58:49;;;;;;;21.85;11.05;;;7.50;99.90;;;;;;6159318;23;20017;-77
2022/02/04 07:01:14;;;;;;;25.50;11.35;;;7.50;99.90;;;;;;6185379;23;20021;-79
2022/02/04 07:03:41;;;;;;;25.58;10.98;;;7.40;99.90;;;;;;6159929;23;20437;-77
2022/02/04 07:06:07;;;;;;;28.40;10.55;;;7.60;99.90;;;;;;6184477;23;20103;-77
2022/02/04 07:08:44;;;;;;;21.23;9.85;;;7.50;99.90;;;;;;6157933;23;20483;-80
2022/02/04 07:11:33;;;;;;;20.98;9.90;;;7.50;99.90;;;;;;6159745;23;20023;-79
2022/02/04 07:21:30;;;;;;;26.00;10.55;;;7.50;99.90;;;;;;6212074;23;20017;-79
2022/02/04 07:23:56;;;;;;;19.95;10.40;;;7.60;99.90;;;;;;6159580;23;20032;-77
2022/02/04 07:26:22;;;;;;;24.27;10.63;;;7.50;99.90;;;;;;6160594;23;20027;-80
2022/02/04 07:28:48;;;;;;;25.30;10.98;;;7.50;99.90;;;;;;6160565;23;20433;-81
2022/02/04 07:31:15;;;;;;;21.65;10.35;;;7.50;99.90;;;;;;6186008;23;20094;-80
2022/02/04 07:33:47;;;;;;;19.33;10.65;;;7.60;99.90;;;;;;6185721;23;20017;-77
2022/02/04 07:41:45;;;;;;;20.73;9.70;;;7.70;99.90;;;;;;6183788;23;20025;-77
2022/02/04 07:44:11;;;;;;;20.13;9.98;;;7.60;99.90;;;;;;6160084;23;20139;-78
2022/02/04 07:46:37;;;;;;;24.67;10.40;;;7.60;99.90;;;;;;6137156;23;20085;-79
2022/02/04 07:49:03;;;;;;;22.30;10.20;;;7.60;99.90;;;;;;6185306;23;20029;-79
2022/02/04 07:51:39;;;;;;;20.92;10.40;;;7.60;99.90;;;;;;6160607;23;20020;-80
2022/02/04 07:54:10;;;;;;;16.40;9.02;;;7.70;99.90;;;;;;6184511;23;20020;-78
2022/02/04 07:56:36;;;;;;;15.80;9.30;;;7.60;99.90;;;;;;6185145;23;20154;-80
2022/02/04 07:59:09;;;;;;;17.30;9.75;;;7.70;99.90;;;;;;6185521;23;20427;-80
2022/02/04 08:01:55;;;;;;;17.50;9.75;;;7.60;99.90;;;;;;6159889;23;20106;-82
2022/02/04 08:04:26;;;;;;;14.85;8.90;;;8.30;99.90;;;;;;6185200;23;20012;-80
2022/02/04 08:06:54;;;;;;;17.90;9.07;;;7.70;99.90;;;;;;6161320;23;20028;-79
2022/02/04 08:09:35;;;;;;;16.52;9.73;;;7.60;99.90;;;;;;6186449;23;20056;-79
2022/02/04 08:15:01;;;;;;;15.25;8.73;;;7.70;99.90;;;;;;6187718;23;20161;-79
2022/02/04 08:17:46;;;;;;;23.48;9.07;;;7.70;99.90;;;;;;6187241;23;20051;-76
2022/02/04 08:20:35;;;;;;;;;;;7.70;99.90;;;;;;6160045;23;20009;-78
2022/02/04 08:28:39;;;;;;;12.27;7.80;;;7.90;99.90;;;;;;6188259;23;20154;-79
2022/02/04 08:34:13;;;;;;;9.38;6.03;;;8.00;99.90;;;;;;6188023;23;20181;-84
2022/02/04 08:55:58;;;;;;;11.80;5.20;;;8.30;99.90;;;;;;6098238;23;20022;-81
2022/02/04 08:58:45;;;;;;;13.10;5.72;;;8.80;99.90;;;;;;6098592;23;20014;-80
2022/02/04 09:01:32;;;;;;;9.43;5.20;;;7.70;99.90;;;;;;6073610;23;20010;-81
2022/02/04 09:04:07;;;;;;;11.85;5.97;;;8.10;99.90;;;;;;6098878;23;20363;-81
2022/02/04 09:06:43;;;;;;;7.07;4.30;;;9.00;99.90;;;;;;6098045;23;20105;-81
2022/02/04 09:09:28;;;;;;;9.07;5.35;;;8.90;99.90;;;;;;6073264;23;20030;-81
2022/02/04 09:12:20;;;;;;;10.27;5.35;;;8.10;99.90;;;;;;6045727;23;20295;-82
2022/02/04 09:18:01;;;;;;;11.20;5.78;;;8.20;99.90;;;;;;6069564;23;20344;-81
2022/02/04 09:20:59;;;;;;;9.43;5.50;;;7.80;99.90;;;;;;6070200;23;20023;-82
2022/02/04 09:23:33;;;;;;;9.90;5.85;;;8.10;99.90;;;;;;6157091;23;20031;-83
2022/02/04 09:26:05;;;;;;;9.77;6.38;;;8.20;99.90;;;;;;6158441;23;20031;-80
2022/02/04 09:28:33;;;;;;;13.82;6.43;;;8.20;99.90;;;;;;6155333;23;20335;-80
2022/02/04 09:30:59;;;;;;;11.48;7.20;;;8.70;99.90;;;;;;6134006;23;20386;-80
2022/02/04 09:33:33;;;;;;;11.82;7.28;;;8.20;99.90;;;;;;6096552;23;20064;-80
2022/02/04 09:35:58;;;;;;;12.55;7.78;;;8.40;99.90;;;;;;6097911;23;20056;-78
2022/02/04 09:38:26;;;;;;;11.23;7.88;;;9.20;99.90;;;;;;6096905;23;20018;-82
2022/02/04 09:40:52;;;;;;;9.40;7.93;;;8.30;99.90;;;;;;6098422;23;20049;-79
2022/02/04 09:43:19;;;;;;;14.13;8.40;;;8.40;99.90;;;;;;6122002;23;20400;-84
2022/02/04 09:45:45;;;;;;;10.77;7.78;;;8.30;99.90;;;;;;6121563;23;20022;-83
2022/02/04 09:48:12;;;;;;;13.60;8.68;;;8.30;99.90;;;;;;6122192;23;20018;-83
2022/02/04 09:50:44;;;;;;;10.57;7.85;;;8.40;99.90;;;;;;6121604;23;20037;-83
2022/02/04 10:07:51;;;;;;;13.70;8.48;;;8.40;99.90;;;;;;6156558;23;20438;-80
2022/02/04 10:18:10;;;;;;;16.33;7.97;;;9.10;99.90;;;;;;6184602;23;20021;-83
2022/02/04 10:20:38;;;;;;;15.27;9.05;;;9.10;99.90;;;;;;6157890;23;20013;-80
2022/02/04 10:23:06;;;;;;;13.65;8.45;;;8.60;99.90;;;;;;6157580;23;20398;-87
2022/02/04 10:25:37;;;;;;;12.35;8.27;;;8.80;99.90;;;;;;6133600;23;20075;-81
2022/02/04 10:28:05;;;;;;;12.43;8.60;;;8.70;99.90;;;;;;6156681;23;20027;-80
2022/02/04 10:31:09;;;;;;;10.52;7.30;;;8.70;99.90;;;;;;6157476;23;20052;-83
2022/02/04 10:34:14;;;;;;;12.85;8.18;;;8.80;99.90;;;;;;6062212;23;20050;-77
2022/02/04 10:42:38;;;;;;;13.52;6.82;;;8.70;99.90;;;;;;6063209;23;20014;-79
2022/02/04 10:56:08;;;;;;;13.23;6.20;;;9.00;99.90;;;;;;5983101;23;20061;-82
2022/02/04 11:04:04;;;;;;;11.35;6.20;;;9.10;99.90;;;;;;6011788;23;20026;-81
2022/02/04 11:09:09;;;;;;;11.45;6.93;;;9.10;99.90;;;;;;6066895;23;20054;-78
2022/02/04 11:31:06;;;;;;;8.77;4.47;;;9.20;99.90;;;;;;6062954;23;20025;-80
2022/02/04 11:34:40;;;;;;;9.43;4.78;;;9.10;99.90;;;;;;6039098;23;20081;-80
2022/02/04 11:54:35;;;;;;;8.95;3.42;;;9.20;99.90;;;;;;6010742;23;20303;-80
2022/02/04 11:57:05;;;;;;;7.00;4.25;;;9.40;99.90;;;;;;6077895;23;20346;-79
2022/02/04 11:59:34;;;;;;;8.68;4.40;;;9.70;99.90;;;;;;6096148;23;20013;-80
2022/02/04 12:02:02;;;;;;;7.90;4.20;;;9.30;99.90;;;;;;6071666;23;20073;-79
2022/02/04 12:04:28;;;;;;;8.45;4.05;;;9.30;99.90;;;;;;6096307;23;20100;-78
2022/02/04 12:06:54;;;;;;;11.50;3.80;;;9.70;99.90;;;;;;6096126;23;20069;-79
2022/02/04 12:09:39;;;;;;;11.85;3.60;;;9.30;99.90;;;;;;6071386;23;20029;-79
2022/02/04 12:12:05;;;;;;;9.52;3.60;;;9.30;99.90;;;;;;6072412;23;20021;-81
2022/02/04 12:14:33;;;;;;;7.25;4.60;;;9.40;99.90;;;;;;6096358;23;20330;-81
2022/02/04 12:17:06;;;;;;;9.35;3.60;;;9.40;99.90;;;;;;6096557;23;20379;-80
2022/02/04 12:19:36;;;;;;;4.30;2.78;;;9.40;99.90;;;;;;6096454;23;20045;-80
2022/02/04 12:22:01;;;;;;;6.95;3.50;;;9.60;99.90;;;;;;6071916;23;20046;-77
2022/02/04 12:24:39;;;;;;;6.00;3.28;;;9.30;99.90;;;;;;6072423;23;20014;-79
2022/02/04 12:27:24;;;;;;;5.55;3.05;;;9.40;99.90;;;;;;6097693;23;20018;-79
2022/02/04 12:29:51;;;;;;;6.35;3.03;;;9.30;99.90;;;;;;6187211;23;20012;-83
2022/02/04 12:32:19;;;;;;;9.15;2.85;;;9.30;99.90;;;;;;6187057;23;20017;-80
2022/02/04 12:34:47;;;;;;;5.63;2.63;;;9.00;99.90;;;;;;6188285;23;20017;-81
2022/02/04 12:37:16;;;;;;;7.32;3.05;;;9.90;99.90;;;;;;6188476;23;20024;-81
2022/02/04 12:39:41;;;;;;;6.22;2.83;;;9.20;99.90;;;;;;6213737;23;20091;-79
2022/02/04 12:42:09;;;;;;;8.10;3.25;;;9.60;99.90;;;;;;6186739;23;20056;-79
2022/02/04 12:44:42;;;;;;;8.45;3.25;;;9.20;99.90;;;;;;6187441;23;20009;-78
2022/02/04 12:47:15;;;;;;;4.28;2.40;;;9.10;99.90;;;;;;6162237;23;20027;-77
2022/02/04 12:49:55;;;;;;;11.43;3.15;;;9.10;99.90;;;;;;6138731;23;20024;-80
2022/02/04 12:52:35;;;;;;;7.18;2.55;;;9.00;99.90;;;;;;6161728;23;20021;-80
2022/02/04 12:55:08;;;;;;;5.53;2.30;;;8.80;99.90;;;;;;6161140;23;20048;-81
2022/02/04 12:57:44;;;;;;;5.75;2.47;;;8.80;99.90;;;;;;6186195;23;20376;-80
2022/02/04 13:11:23;;;;;;;8.85;4.90;;;8.40;99.90;;;;;;6210870;23;20137;-82
2022/02/04 13:14:08;;;;;;;5.25;3.47;;;8.30;99.90;;;;;;6160852;23;20017;-81
2022/02/04 13:16:35;;;;;;;3.83;3.33;;;8.20;99.90;;;;;;6159121;23;20052;-83
2022/02/04 13:19:03;;;;;;;6.40;3.30;;;8.10;99.90;;;;;;6160279;23;20051;-84
2022/02/04 13:21:30;;;;;;;7.88;1.50;;;8.40;99.90;;;;;;6183540;23;20106;-83
2022/02/04 13:24:02;;;;;;;6.55;0.90;;;8.00;99.90;;;;;;6159423;23;20009;-85
2022/02/04 13:26:29;;;;;;;3.20;0.38;;;7.50;99.90;;;;;;6185830;23;20435;-84
2022/02/04 13:29:03;;;;;;;4.07;0.70;;;6.30;99.90;;;;;;6160921;23;20036;-84
2022/02/04 13:31:46;;;;;;;4.13;0.70;;;5.90;99.90;;;;;;6159350;23;20024;-82
2022/02/04 13:35:31;;;;;;;5.25;0.77;;;5.30;99.90;;;;;;6160873;23;20016;-84
2022/02/04 13:37:50;;;;;;;2.20;0.32;;;5.70;99.90;;;;;;6083580;23;20084;-82
2022/02/04 13:43:58;;;;;;;3.97;0.45;;;5.40;99.90;;;;;;6037114;23;20147;-86
2022/02/04 13:46:53;;;;;;;5.78;0.22;;;6.10;99.90;;;;;;6062105;23;20078;-82
2022/02/04 13:52:23;;;;;;;1.15;0.22;;;5.10;99.90;;;;;;6036850;23;20110;-79
2022/02/04 13:55:10;;;;;;;;;;;4.90;99.90;;;;;;6061369;23;20023;-83
2022/02/04 13:57:45;;;;;;;0.95;0.20;;;4.80;99.90;;;;;;6038099;23;19969;-80
2022/02/04 14:02:50;;;;;;;3.28;0.20;;;4.40;99.90;;;;;;6013627;23;20019;-81
2022/02/04 14:05:31;;;;;;;2.33;0.30;;;4.30;99.90;;;;;;6037782;23;20022;-79
2022/02/04 14:11:36;;;;;;;1.57;0.30;;;4.00;99.90;;;;;;5981548;23;20094;-81
2022/02/04 14:14:05;;;;;;;0.15;0.08;;;3.90;99.90;;;;;;5981238;23;20055;-78
2022/02/04 14:16:32;;;;;;;0.40;0.17;;;3.80;99.90;;;;;;5957713;23;20051;-82
2022/02/04 14:19:04;;;;;;;1.00;0.15;;;3.90;99.90;;;;;;5981199;23;20091;-78
2022/02/04 14:21:30;;;;;;;2.75;0.30;;;3.80;99.90;;;;;;6032963;23;20073;-78
2022/02/04 14:24:00;;;;;;;0.08;0.08;;;3.80;99.90;;;;;;6038885;23;20105;-77
2022/02/04 14:26:31;;;;;;;1.95;0.10;;;3.70;99.90;;;;;;6037443;23;20019;-79
2022/02/04 14:29:06;;;;;;;0.28;0.20;;;3.80;99.90;;;;;;6036936;23;20015;-77
2022/02/04 14:31:48;;;;;;;0.55;0.10;;;3.70;99.90;;;;;;6039069;23;20022;-77
2022/02/04 14:37:11;;;;;;;2.50;0.40;;;3.80;99.90;;;;;;6038348;23;20022;-76
2022/02/04 15:01:50;;;;;;;0.68;0.30;;;3.70;99.90;;;;;;6067020;23;20094;-79
2022/02/04 15:04:26;;;;;;;1.17;0.40;;;3.60;99.90;;;;;;6067555;23;20116;-77
2022/02/04 15:06:59;;;;;;;0.52;0.30;;;3.60;99.90;;;;;;6066657;23;20014;-79
2022/02/04 15:09:24;;;;;;;1.33;0.28;;;3.60;99.90;;;;;;6066808;23;20103;-79
2022/02/04 15:11:51;;;;;;;0.32;0.10;;;3.60;99.90;;;;;;6042864;23;20495;-78
2022/02/04 15:14:18;;;;;;;1.77;0.20;;;3.60;99.90;;;;;;6067074;23;20018;-76
2022/02/04 15:16:45;;;;;;;0.57;0.20;;;3.50;99.90;;;;;;6091163;23;20097;-76
2022/02/04 15:19:11;;;;;;;1.10;0.10;;;3.60;99.90;;;;;;6042246;23;20010;-79
2022/02/04 15:21:41;;;;;;;0.55;0.20;;;3.50;99.90;;;;;;6041666;23;20688;-80
2022/02/04 15:24:09;;;;;;;0.45;0.20;;;3.50;99.90;;;;;;6042698;23;20010;-80
2022/02/04 15:26:36;;;;;;;2.58;0.45;;;3.50;99.90;;;;;;6042025;23;20573;-78
2022/02/04 15:29:08;;;;;;;0.73;0.28;;;3.50;99.90;;;;;;6066630;23;20127;-79
2022/02/04 15:34:06;;;;;;;1.15;0.20;;;3.60;99.90;;;;;;6077092;23;20335;-82
2022/02/04 15:36:40;;;;;;;4.50;0.40;;;3.60;99.90;;;;;;6112618;23;20024;-79
2022/02/04 15:39:09;;;;;;;2.90;0.80;;;3.60;99.90;;;;;;6160572;23;20095;-81
2022/02/04 15:41:39;;;;;;;2.80;0.50;;;3.60;99.90;;;;;;6185816;23;20245;-83
2022/02/04 15:44:22;;;;;;;1.48;0.30;;;3.70;99.90;;;;;;6160702;23;20013;-81
2022/02/04 15:49:54;;;;;;;4.63;0.95;;;3.70;99.90;;;;;;6186152;23;20025;-78
2022/02/04 15:53:13;;;;;;;5.47;0.60;;;3.80;99.90;;;;;;6184312;23;20162;-82
2022/02/04 16:03:43;;;;;;;10.43;0.90;;;3.80;99.90;;;;;;6123839;23;20049;-80
2022/02/04 16:06:15;;;;;;;7.90;1.30;;;3.90;99.90;;;;;;6133992;22;20055;-80
2022/02/04 16:08:43;;;;;;;8.00;0.82;;;3.80;99.90;;;;;;6178142;23;20025;-80
2022/02/04 16:14:11;;;;;;;2.80;0.55;;;3.50;99.90;;;;;;6183089;23;20020;-82
2022/02/04 16:16:58;;;;;;;6.30;0.77;;;4.40;99.90;;;;;;6148719;23;20009;-82
2022/02/04 16:19:28;;;;;;;4.45;0.75;;;4.80;99.90;;;;;;6150314;23;20035;-80
2022/02/04 16:25:31;;;;;;;3.00;0.52;;;3.30;99.90;;;;;;6034917;23;20082;-81
2022/02/04 16:31:09;;;;;;;5.03;0.88;;;3.80;99.90;;;;;;6060943;23;20019;-79
2022/02/04 16:33:34;;;;;;;5.78;0.85;;;4.40;99.90;;;;;;6036233;23;20022;-80
2022/02/04 16:36:08;;;;;;;6.50;1.50;;;3.80;99.90;;;;;;6037505;23;20043;-79
2022/02/04 16:38:33;;;;;;;7.07;0.77;;;3.80;99.90;;;;;;6059159;23;20023;-81
2022/02/04 16:41:06;;;;;;;8.73;1.00;;;3.80;99.90;;;;;;6038274;23;20026;-78
2022/02/04 16:43:35;;;;;;;9.27;1.75;;;3.80;99.90;;;;;;6061687;23;20025;-81
2022/02/04 16:46:02;;;;;;;15.20;2.72;;;3.70;99.90;;;;;;6037393;23;20021;-76
2022/02/04 16:48:28;;;;;;;9.70;1.80;;;3.80;99.90;;;;;;6037046;23;20349;-79
2022/02/04 16:50:54;;;;;;;7.57;1.15;;;3.70;99.90;;;;;;6037203;23;20038;-79
2022/02/04 16:53:20;;;;;;;6.38;1.08;;;3.80;99.90;;;;;;6036043;23;20041;-79
2022/02/04 16:55:46;;;;;;;10.07;1.10;;;3.80;99.90;;;;;;6038502;23;20015;-79
2022/02/04 16:58:11;;;;;;;16.17;1.70;;;3.90;99.90;;;;;;6037843;23;20050;-79
2022/02/04 17:00:37;;;;;;;7.03;1.02;;;3.80;99.90;;;;;;6036676;23;20436;-79
2022/02/04 17:03:08;;;;;;;9.63;1.20;;;3.90;99.90;;;;;;6169853;23;20019;-81
2022/02/04 17:05:48;;;;;;;5.63;1.10;;;3.90;99.90;;;;;;6185080;23;20012;-78
2022/02/04 17:08:21;;;;;;;8.80;1.30;;;3.90;99.90;;;;;;6183412;23;20019;-77
2022/02/04 17:10:51;;;;;;;6.38;0.85;;;3.90;99.90;;;;;;6154586;23;20027;-79
2022/02/04 17:13:18;;;;;;;10.23;1.13;;;3.90;99.90;;;;;;6154553;23;20453;-78
2022/02/04 17:15:44;;;;;;;5.57;1.05;;;4.10;99.90;;;;;;6179828;23;20016;-78
2022/02/04 17:20:40;;;;;;;6.20;0.90;;;3.90;99.90;;;;;;5112971;27;20344;-76
2022/02/04 17:23:09;;;;;;;6.70;1.52;;;3.90;99.90;;;;;;5097357;28;20041;-75
2022/02/04 17:25:35;;;;;;;7.53;1.38;;;3.90;99.90;;;;;;5115464;27;20054;-77
2022/02/04 17:28:02;;;;;;;8.05;1.30;;;3.80;99.90;;;;;;5097520;28;20128;-77
2022/02/04 17:30:28;;;;;;;5.35;1.20;;;3.80;99.90;;;;;;5102393;28;20432;-76
2022/02/04 17:32:54;;;;;;;5.38;0.90;;;3.90;99.90;;;;;;5089019;28;20113;-77
2022/02/04 17:35:22;;;;;;;4.75;1.25;;;3.80;99.90;;;;;;5105664;28;20352;-76
2022/02/04 17:37:51;;;;;;;8.45;1.20;;;3.80;99.90;;;;;;5097324;28;20063;-76
2022/02/04 17:40:18;;;;;;;7.50;1.30;;;3.80;99.90;;;;;;5111484;27;20056;-76
2022/02/04 17:42:46;;;;;;;7.40;1.50;;;3.80;99.90;;;;;;5090492;28;20071;-77
2022/02/04 17:45:18;;;;;;;5.93;1.00;;;3.70;99.90;;;;;;5093616;28;20043;-78
2022/02/04 17:47:52;;;;;;;11.82;2.20;;;3.70;99.90;;;;;;5085505;28;20046;-77
2022/02/04 17:50:25;;;;;;;9.73;2.25;;;3.70;99.90;;;;;;5097165;28;20055;-76
2022/02/04 17:52:58;;;;;;;4.85;1.00;;;4.40;99.90;;;;;;5085180;28;20052;-76
2022/02/04 17:55:31;;;;;;;11.02;1.55;;;3.60;99.90;;;;;;5102365;28;20051;-76
2022/02/04 17:58:09;;;;;;;7.15;1.20;;;4.00;99.90;;;;;;5099500;28;20139;-77
2022/02/04 18:00:57;;;;;;;15.65;1.70;;;3.70;99.90;;;;;;5102889;28;20055;-75
2022/02/04 18:08:21;;;;;;;20.02;6.00;;;3.90;99.90;;;;;;5091815;28;20123;-78
2022/02/04 18:10:47;;;;;;;13.80;5.28;;;3.40;99.90;;;;;;5087307;28;20137;-77
2022/02/04 18:13:12;;;;;;;22.50;7.75;;;3.30;99.90;;;;;;5090309;28;20075;-79
2022/02/04 18:15:42;;;;;;;23.27;8.80;;;3.30;99.90;;;;;;5104802;28;20134;-79
2022/02/04 18:18:12;;;;;;;24.63;10.27;;;3.20;99.90;;;;;;5102598;28;20196;-75
2022/02/04 18:20:39;;;;;;;18.13;4.90;;;3.30;99.90;;;;;;5120884;27;20757;-75
2022/02/04 18:23:05;;;;;;;16.80;3.28;;;3.30;99.90;;;;;;5106267;28;20495;-75
2022/02/04 18:25:32;;;;;;;25.98;7.93;;;3.30;99.90;;;;;;5087502;28;20119;-76
2022/02/04 18:27:58;;;;;;;16.27;4.50;;;3.30;99.90;;;;;;5102440;28;20040;-76
2022/02/04 18:30:25;;;;;;;13.27;2.03;;;3.30;99.90;;;;;;5086723;28;20036;-76
2022/02/04 18:32:50;;;;;;;14.93;2.35;;;3.30;99.90;;;;;;5080222;28;20044;-76
2022/02/04 18:35:18;;;;;;;21.25;3.22;;;3.30;99.90;;;;;;5079755;28;20115;-76
2022/02/04 18:38:03;;;;;;;22.23;3.03;;;3.30;99.90;;;;;;5081709;28;20167;-76
2022/02/04 18:45:47;;;;;;;12.05;2.28;;;3.70;99.90;;;;;;5080973;28;20028;-78
2022/02/04 18:48:20;;;;;;;8.70;1.90;;;3.70;99.90;;;;;;5061654;28;22025;-77
2022/02/04 18:58:26;;;;;;;7.75;1.23;;;3.80;99.90;;;;;;5081858;28;20044;-79
2022/02/04 19:00:54;;;;;;;10.88;1.20;;;3.80;99.90;;;;;;5045111;28;20036;-77
2022/02/04 19:03:25;;;;;;;6.53;0.88;;;4.10;99.90;;;;;;5082690;28;20093;-79
2022/02/04 19:06:12;;;;;;;12.10;1.70;;;4.00;99.90;;;;;;5076622;28;20070;-78
2022/02/04 19:08:46;;;;;;;4.40;1.00;;;4.40;99.90;;;;;;5100230;28;20036;-78
2022/02/04 19:11:16;;;;;;;14.23;1.35;;;4.00;99.90;;;;;;5078530;28;20044;-80
2022/02/04 19:13:48;;;;;;;6.85;1.50;;;4.10;99.90;;;;;;5077980;28;20094;-80
2022/02/04 19:16:38;;;;;;;11.43;1.48;;;4.00;99.90;;;;;;5081963;28;20051;-83
2022/02/04 19:24:04;;;;;;;8.57;1.08;;;4.00;99.90;;;;;;5076174;28;20068;-79
2022/02/04 19:26:30;;;;;;;13.73;2.30;;;4.00;99.90;;;;;;5068301;28;20043;-80
2022/02/04 19:28:56;;;;;;;8.30;1.17;;;4.00;99.90;;;;;;5053456;28;20046;-80
2022/02/04 19:31:22;;;;;;;9.02;1.52;;;4.00;99.90;;;;;;5083311;28;20039;-81
2022/02/04 19:33:48;;;;;;;14.05;1.83;;;4.50;99.90;;;;;;5058530;28;20091;-80
2022/02/04 19:36:14;;;;;;;8.88;1.42;;;4.20;99.90;;;;;;5079084;28;20419;-80
2022/02/04 19:38:41;;;;;;;19.55;2.25;;;4.10;99.90;;;;;;5056608;28;20044;-80
2022/02/04 19:41:15;;;;;;;10.32;1.67;;;4.00;99.90;;;;;;5061242;28;20468;-80
2022/02/04 19:43:47;;;;;;;22.08;2.40;;;4.00;99.90;;;;;;5058930;28;20044;-79
2022/02/04 19:46:17;;;;;;;24.00;2.95;;;3.90;99.90;;;;;;5069038;28;20033;-78
2022/02/04 19:48:47;;;;;;;33.13;9.48;;;3.90;99.90;;;;;;5077887;28;20031;-77
2022/02/04 20:23:49;;;;;;;16.67;2.80;;;3.10;99.90;;;;;;5042552;28;20595;-78
2022/02/04 20:26:15;;;;;;;13.80;3.05;;;3.00;99.90;;;;;;5028199;28;20045;-79
2022/02/04 20:28:40;;;;;;;20.30;3.67;;;3.00;99.90;;;;;;5028147;28;20090;-77